createdAt,value
2022-09-15T00:00:21.236Z,668.9
2022-09-15T00:01:24.187Z,668.7
2022-09-15T00:02:27.472Z,669.3
2022-09-15T00:03:30.010Z,668.8
2022-09-15T00:04:32.291Z,668.8
2022-09-15T00:05:33.977Z,668.5
2022-09-15T00:06:36.441Z,668.9
2022-09-15T00:07:38.670Z,668.6
2022-09-15T00:08:40.858Z,668.6
2022-09-15T00:09:43.338Z,668.8
2022-09-15T00:10:46.026Z,668.9
2022-09-15T00:11:48.490Z,669.1
2022-09-15T00:12:50.761Z,669.1
2022-09-15T00:13:53.798Z,669.5
2022-09-15T00:14:56.371Z,669.6
2022-09-15T00:15:58.940Z,669.2
2022-09-15T00:17:01.941Z,669.4
2022-09-15T00:18:04.169Z,669.8
2022-09-15T00:19:06.640Z,669.7
2022-09-15T00:20:08.901Z,669.6
2022-09-15T00:21:11.383Z,669.9
2022-09-15T00:22:13.586Z,669.7
2022-09-15T00:23:16.077Z,669.7
2022-09-15T00:24:18.551Z,670.2
2022-09-15T00:25:21.022Z,670.2
2022-09-15T00:26:23.495Z,670.5
2022-09-15T00:27:25.696Z,670.5
2022-09-15T00:28:28.177Z,671.2
2022-09-15T00:29:30.553Z,671.2
2022-09-15T00:30:33.062Z,671.4
2022-09-15T00:31:35.559Z,671.2
2022-09-15T00:32:37.774Z,671
2022-09-15T00:33:39.970Z,671.1
2022-09-15T00:34:42.447Z,670.9
2022-09-15T00:35:45.016Z,671.3
2022-09-15T00:36:47.490Z,671.1
2022-09-15T00:37:50.177Z,671.5
2022-09-15T00:38:52.726Z,671.5
2022-09-15T00:39:55.275Z,671.6
2022-09-15T00:40:57.491Z,671.4
2022-09-15T00:41:59.687Z,671.7
2022-09-15T00:43:02.170Z,671.9
2022-09-15T00:44:04.366Z,671.7
2022-09-15T00:45:06.864Z,671.7
2022-09-15T00:46:09.910Z,671.8
2022-09-15T00:48:17.185Z,672
2022-09-15T00:49:19.374Z,672.3
2022-09-15T00:50:21.859Z,671.9
2022-09-15T00:51:24.055Z,672.2
2022-09-15T00:52:26.535Z,672.5
2022-09-15T00:53:28.784Z,672.3
2022-09-15T00:54:31.002Z,672.9
2022-09-15T00:55:33.466Z,672.9
2022-09-15T00:56:35.942Z,673
2022-09-15T00:57:38.405Z,672.9
2022-09-15T00:58:40.875Z,673
2022-09-15T00:59:42.796Z,672.8
2022-09-15T01:00:45.179Z,673.2
2022-09-15T01:01:48.615Z,673.3
2022-09-15T01:02:51.189Z,673
2022-09-15T01:03:53.691Z,673.1
2022-09-15T01:06:01.160Z,673.1
2022-09-15T01:07:03.646Z,672.6
2022-09-15T01:08:05.852Z,672.8
2022-09-15T01:09:08.321Z,673.3
2022-09-15T01:10:10.569Z,673.2
2022-09-15T01:11:13.036Z,672.7
2022-09-15T01:12:15.507Z,673.1
2022-09-15T01:13:18.022Z,673.3
2022-09-15T01:14:20.498Z,673.3
2022-09-15T01:15:22.415Z,673
2022-09-15T01:16:25.155Z,673.4
2022-09-15T01:17:27.385Z,673.5
2022-09-15T01:18:29.873Z,673.2
2022-09-15T01:19:32.383Z,673.1
2022-09-15T01:20:34.589Z,674
2022-09-15T01:21:37.070Z,673.5
2022-09-15T01:22:39.319Z,673.7
2022-09-15T01:23:41.936Z,673.5
2022-09-15T01:24:44.141Z,673.7
2022-09-15T01:25:46.636Z,674
2022-09-15T01:26:49.113Z,673.7
2022-09-15T01:27:51.029Z,674.2
2022-09-15T01:28:53.390Z,674.1
2022-09-15T01:29:55.893Z,674.3
2022-09-15T01:30:58.379Z,674.2
2022-09-15T01:32:01.278Z,674.4
2022-09-15T01:33:03.519Z,673.9
2022-09-15T01:34:05.692Z,674.1
2022-09-15T01:35:08.190Z,673.7
2022-09-15T01:36:10.388Z,674.1
2022-09-15T01:37:12.863Z,673.8
2022-09-15T01:38:14.793Z,674.3
2022-09-15T01:39:17.262Z,674.3
2022-09-15T01:40:20.194Z,674.1
2022-09-15T01:41:22.742Z,673.9
2022-09-15T01:42:24.944Z,673.9
2022-09-15T01:43:27.420Z,673.4
2022-09-15T01:44:29.885Z,673
2022-09-15T01:45:32.807Z,673.2
2022-09-15T01:46:35.014Z,673.8
2022-09-15T01:47:37.014Z,674
2022-09-15T01:48:38.941Z,673.9
2022-09-15T01:49:41.411Z,672.8
2022-09-15T01:50:43.895Z,673.5
2022-09-15T01:51:46.088Z,673.6
2022-09-15T01:52:48.298Z,673.7
2022-09-15T01:53:50.995Z,673.7
2022-09-15T01:54:53.252Z,673.5
2022-09-15T01:55:55.449Z,673.4
2022-09-15T01:56:57.648Z,673.7
2022-09-15T01:58:00.123Z,673.8
2022-09-15T01:59:02.323Z,673.9
2022-09-15T02:00:04.789Z,673.9
2022-09-15T02:01:07.432Z,673.8
2022-09-15T02:02:10.005Z,674.3
2022-09-15T02:03:12.613Z,674.4
2022-09-15T02:04:14.556Z,674.4
2022-09-15T02:05:16.481Z,674
2022-09-15T02:06:18.959Z,673.9
2022-09-15T02:07:21.440Z,674.5
2022-09-15T02:08:23.917Z,674.2
2022-09-15T02:09:26.414Z,673.5
2022-09-15T02:10:28.879Z,674.3
2022-09-15T02:11:30.868Z,674.5
2022-09-15T02:12:33.352Z,674.1
2022-09-15T02:13:35.824Z,673.9
2022-09-15T02:14:38.005Z,673.7
2022-09-15T02:15:40.480Z,674.4
2022-09-15T02:16:43.580Z,674.5
2022-09-15T02:17:45.829Z,674.7
2022-09-15T02:18:48.319Z,674.1
2022-09-15T02:19:50.595Z,673.9
2022-09-15T02:20:52.789Z,674.7
2022-09-15T02:21:55.088Z,674.3
2022-09-15T02:22:57.556Z,674.1
2022-09-15T02:24:00.058Z,674.6
2022-09-15T02:25:02.564Z,675
2022-09-15T02:26:04.465Z,674.7
2022-09-15T02:27:06.384Z,675.3
2022-09-15T02:28:08.594Z,675
2022-09-15T02:29:11.057Z,674.6
2022-09-15T02:30:13.000Z,674.4
2022-09-15T02:31:15.498Z,674.6
2022-09-15T02:32:17.995Z,674.3
2022-09-15T02:33:20.468Z,674.2
2022-09-15T02:34:22.955Z,675.1
2022-09-15T02:35:25.194Z,674.6
2022-09-15T02:36:27.667Z,674.6
2022-09-15T02:37:30.227Z,674.2
2022-09-15T02:38:32.428Z,674.2
2022-09-15T02:39:34.897Z,674.5
2022-09-15T02:40:37.235Z,674.2
2022-09-15T02:41:38.869Z,674.8
2022-09-15T02:42:41.062Z,674.1
2022-09-15T02:43:43.554Z,674.1
2022-09-15T02:44:46.028Z,674.5
2022-09-15T02:45:48.770Z,674.9
2022-09-15T02:46:51.254Z,674.8
2022-09-15T02:47:53.462Z,674.8
2022-09-15T02:48:55.674Z,674.3
2022-09-15T02:49:58.215Z,674
2022-09-15T02:51:00.415Z,674.1
2022-09-15T02:52:02.888Z,674.2
2022-09-15T02:53:05.089Z,673.8
2022-09-15T02:54:07.289Z,674.4
2022-09-15T02:55:09.504Z,674.3
2022-09-15T02:56:11.730Z,674.2
2022-09-15T02:57:14.205Z,674.5
2022-09-15T02:58:16.403Z,674.8
2022-09-15T02:59:18.902Z,674.9
2022-09-15T03:00:21.376Z,675
2022-09-15T03:01:23.940Z,675.3
2022-09-15T03:02:26.794Z,674.8
2022-09-15T03:03:29.034Z,675
2022-09-15T03:04:31.242Z,675.3
2022-09-15T03:05:33.472Z,675.2
2022-09-15T03:06:35.956Z,675.5
2022-09-15T03:07:53.090Z,674.6
2022-09-15T03:08:55.589Z,674.4
2022-09-15T03:09:58.076Z,674.9
2022-09-15T03:11:00.559Z,674.7
2022-09-15T03:12:03.054Z,674.9
2022-09-15T03:13:04.412Z,674.5
2022-09-15T03:14:06.610Z,675.1
2022-09-15T03:15:09.106Z,674.7
2022-09-15T03:16:11.684Z,674.6
2022-09-15T03:17:13.896Z,674.8
2022-09-15T03:18:16.090Z,674.8
2022-09-15T03:19:18.559Z,674.3
2022-09-15T03:20:21.031Z,674.3
2022-09-15T03:21:23.061Z,674.9
2022-09-15T03:22:25.555Z,674.8
2022-09-15T03:23:27.743Z,674.3
2022-09-15T03:24:29.949Z,674.4
2022-09-15T03:25:32.412Z,674.1
2022-09-15T03:26:34.895Z,673.8
2022-09-15T03:27:37.128Z,674.1
2022-09-15T03:28:39.609Z,674
2022-09-15T03:29:41.814Z,674.1
2022-09-15T03:30:44.010Z,673.7
2022-09-15T03:31:46.947Z,674.1
2022-09-15T03:32:49.175Z,674.2
2022-09-15T03:33:51.653Z,674.4
2022-09-15T03:35:58.819Z,674.1
2022-09-15T03:37:01.042Z,674.2
2022-09-15T03:38:03.529Z,674.7
2022-09-15T03:39:06.060Z,674.6
2022-09-15T03:40:08.727Z,674.5
2022-09-15T03:41:11.240Z,674.1
2022-09-15T03:42:13.229Z,674.7
2022-09-15T03:44:20.688Z,674
2022-09-15T03:45:23.158Z,674
2022-09-15T03:46:25.391Z,674.2
2022-09-15T03:47:27.307Z,674.1
2022-09-15T03:48:29.786Z,674.2
2022-09-15T03:49:32.259Z,674.1
2022-09-15T03:50:34.179Z,674
2022-09-15T03:51:36.652Z,674.2
2022-09-15T03:52:39.277Z,674.5
2022-09-15T03:53:41.615Z,674.6
2022-09-15T03:54:44.126Z,673.5
2022-09-15T03:55:46.118Z,673.8
2022-09-15T03:56:48.026Z,674.2
2022-09-15T03:57:50.218Z,674.3
2022-09-15T03:58:52.742Z,674.3
2022-09-15T03:59:54.966Z,674.1
2022-09-15T04:00:57.872Z,674.4
2022-09-15T04:02:00.828Z,674.3
2022-09-15T04:03:03.314Z,674.6
2022-09-15T04:04:05.809Z,674.4
2022-09-15T04:05:08.002Z,674.1
2022-09-15T04:06:09.935Z,674.6
2022-09-15T04:07:12.137Z,674.2
2022-09-15T04:08:14.406Z,674.2
2022-09-15T04:09:16.894Z,674.5
2022-09-15T04:10:19.096Z,674.7
2022-09-15T04:11:21.588Z,674.5
2022-09-15T04:12:24.126Z,674.5
2022-09-15T04:14:31.353Z,674.3
2022-09-15T04:15:33.547Z,674.7
2022-09-15T04:16:36.403Z,674.6
2022-09-15T04:17:38.954Z,674.4
2022-09-15T04:18:41.175Z,674.2
2022-09-15T04:19:43.361Z,674.4
2022-09-15T04:20:45.566Z,674.2
2022-09-15T04:21:48.044Z,674
2022-09-15T04:22:50.522Z,674.3
2022-09-15T04:23:53.738Z,674.6
2022-09-15T04:24:56.240Z,674.2
2022-09-15T04:25:58.712Z,674.8
2022-09-15T04:27:01.210Z,674
2022-09-15T04:28:03.687Z,674.7
2022-09-15T04:29:06.466Z,675.1
2022-09-15T04:30:08.455Z,674.6
2022-09-15T04:31:11.475Z,674.7
2022-09-15T04:32:13.701Z,675.4
2022-09-15T04:33:15.896Z,675
2022-09-15T04:34:18.382Z,675.5
2022-09-15T04:35:20.880Z,675.4
2022-09-15T04:36:23.353Z,675.4
2022-09-15T04:37:25.441Z,675.5
2022-09-15T04:38:27.698Z,675.3
2022-09-15T04:39:30.216Z,675.5
2022-09-15T04:40:33.045Z,675.7
2022-09-15T04:41:35.596Z,676.3
2022-09-15T04:42:37.956Z,675.3
2022-09-15T04:43:40.169Z,675.4
2022-09-15T04:44:42.641Z,675.2
2022-09-15T04:45:45.143Z,674.8
2022-09-15T04:46:48.222Z,675.6
2022-09-15T04:47:50.477Z,674.8
2022-09-15T04:48:52.973Z,675.6
2022-09-15T04:49:54.648Z,675.6
2022-09-15T04:50:57.123Z,675.4
2022-09-15T04:51:59.326Z,675.9
2022-09-15T04:53:01.519Z,675.8
2022-09-15T04:54:03.998Z,676.4
2022-09-15T04:55:06.238Z,676.8
2022-09-15T04:56:08.724Z,676.8
2022-09-15T04:57:10.637Z,676.9
2022-09-15T04:58:13.180Z,677.2
2022-09-15T04:59:15.371Z,676.9
2022-09-15T05:00:17.570Z,676.4
2022-09-15T05:01:20.461Z,677.1
2022-09-15T05:02:23.469Z,677
2022-09-15T05:03:25.972Z,677.3
2022-09-15T05:04:28.459Z,677
2022-09-15T05:05:30.924Z,677.1
2022-09-15T05:06:33.400Z,677.1
2022-09-15T05:07:35.597Z,677
2022-09-15T05:08:38.063Z,676.8
2022-09-15T05:09:40.544Z,676.8
2022-09-15T05:10:43.041Z,677.1
2022-09-15T05:11:45.284Z,676.7
2022-09-15T05:12:47.466Z,676.6
2022-09-15T05:13:49.388Z,676.6
2022-09-15T05:14:51.854Z,676.2
2022-09-15T05:15:54.681Z,676
2022-09-15T05:16:57.170Z,676.5
2022-09-15T05:17:59.667Z,676.3
2022-09-15T05:19:01.860Z,675.8
2022-09-15T05:20:04.077Z,675.8
2022-09-15T05:21:06.275Z,675.7
2022-09-15T05:22:08.740Z,675.3
2022-09-15T05:23:10.912Z,675.4
2022-09-15T05:24:13.112Z,675.1
2022-09-15T05:25:15.310Z,675.9
2022-09-15T05:26:17.286Z,675.4
2022-09-15T05:27:19.770Z,675.5
2022-09-15T05:28:22.247Z,675.5
2022-09-15T05:29:24.737Z,675.4
2022-09-15T05:31:33.008Z,675.8
2022-09-15T05:32:35.378Z,675.5
2022-09-15T05:33:37.855Z,675.7
2022-09-15T05:34:39.755Z,675.9
2022-09-15T05:35:43.250Z,675.4
2022-09-15T05:36:45.727Z,675.7
2022-09-15T05:37:47.921Z,675
2022-09-15T05:38:50.518Z,675.3
2022-09-15T05:39:53.372Z,675.2
2022-09-15T05:40:55.573Z,674.9
2022-09-15T05:41:58.115Z,675.1
2022-09-15T05:43:00.604Z,675.5
2022-09-15T05:44:03.093Z,675.8
2022-09-15T05:45:05.299Z,675.7
2022-09-15T05:46:07.984Z,675.9
2022-09-15T05:47:09.970Z,675.4
2022-09-15T05:48:12.462Z,675.4
2022-09-15T05:49:14.937Z,674.8
2022-09-15T05:50:17.112Z,675.2
2022-09-15T05:51:19.413Z,675.5
2022-09-15T05:52:21.899Z,675.5
2022-09-15T05:53:24.096Z,674.5
2022-09-15T05:54:26.287Z,675.4
2022-09-15T05:55:28.485Z,675.1
2022-09-15T05:56:30.692Z,674.7
2022-09-15T05:57:32.636Z,674.5
2022-09-15T05:58:34.887Z,674.2
2022-09-15T05:59:37.389Z,674.7
2022-09-15T06:00:39.627Z,675.3
2022-09-15T06:01:42.346Z,674.2
2022-09-15T06:02:44.906Z,674.4
2022-09-15T06:03:46.880Z,674.6
2022-09-15T06:04:49.355Z,674.5
2022-09-15T06:05:51.831Z,674.4
2022-09-15T06:06:54.320Z,674.3
2022-09-15T06:07:56.562Z,674.4
2022-09-15T06:09:02.802Z,674.6
2022-09-15T06:10:04.970Z,673.3
2022-09-15T06:11:07.442Z,674.1
2022-09-15T06:12:09.624Z,673.7
2022-09-15T06:13:12.141Z,673.5
2022-09-15T06:14:14.632Z,673.6
2022-09-15T06:15:16.557Z,673.5
2022-09-15T06:16:19.381Z,673.4
2022-09-15T06:17:21.417Z,673.2
2022-09-15T06:18:23.614Z,673.4
2022-09-15T06:19:26.119Z,673.6
2022-09-15T06:20:28.594Z,673.5
2022-09-15T06:21:30.526Z,673.9
2022-09-15T06:22:32.862Z,674
2022-09-15T06:23:35.339Z,673.8
2022-09-15T06:24:37.557Z,673.8
2022-09-15T06:25:40.043Z,673
2022-09-15T06:26:42.535Z,673.7
2022-09-15T06:27:44.464Z,673.2
2022-09-15T06:28:46.665Z,673.1
2022-09-15T06:29:49.156Z,673.7
2022-09-15T06:30:51.339Z,672.9
2022-09-15T06:31:53.993Z,673.1
2022-09-15T06:32:56.234Z,673.3
2022-09-15T06:33:58.884Z,673
2022-09-15T06:35:01.378Z,672.7
2022-09-15T06:36:03.585Z,672.5
2022-09-15T06:37:06.058Z,672
2022-09-15T06:38:08.272Z,672.3
2022-09-15T06:39:10.748Z,672
2022-09-15T06:40:13.431Z,671.9
2022-09-15T06:41:15.679Z,672.2
2022-09-15T06:42:17.606Z,672.3
2022-09-15T06:43:20.084Z,672.1
2022-09-15T06:44:22.324Z,672
2022-09-15T06:45:24.548Z,671.5
2022-09-15T06:46:27.144Z,671.6
2022-09-15T06:47:29.722Z,671.1
2022-09-15T06:48:32.188Z,670.1
2022-09-15T06:49:34.664Z,670.7
2022-09-15T06:50:36.883Z,670
2022-09-15T06:51:39.364Z,670.6
2022-09-15T06:52:41.265Z,670.8
2022-09-15T06:53:43.771Z,670.9
2022-09-15T06:54:46.262Z,671.6
2022-09-15T06:55:48.733Z,671.2
2022-09-15T06:56:51.082Z,671.5
2022-09-15T06:57:53.584Z,671.9
2022-09-15T06:58:55.930Z,671.7
2022-09-15T06:59:57.897Z,671.6
2022-09-15T07:01:00.415Z,671.6
2022-09-15T07:03:08.666Z,671.4
2022-09-15T07:04:11.265Z,671.1
2022-09-15T07:05:13.759Z,670.9
2022-09-15T07:06:16.266Z,671
2022-09-15T07:07:18.772Z,670.6
2022-09-15T07:08:20.965Z,670.9
2022-09-15T07:09:23.477Z,670.8
2022-09-15T07:10:25.697Z,671.1
2022-09-15T07:11:28.222Z,670.9
2022-09-15T07:12:31.040Z,671
2022-09-15T07:13:33.524Z,671.3
2022-09-15T07:14:36.010Z,671.1
2022-09-15T07:15:38.236Z,671.1
2022-09-15T07:16:41.288Z,671.3
2022-09-15T07:17:43.518Z,671
2022-09-15T07:18:45.474Z,671
2022-09-15T07:19:47.656Z,670.7
2022-09-15T07:20:49.856Z,670.7
2022-09-15T07:21:52.367Z,670.2
2022-09-15T07:22:54.837Z,670.3
2022-09-15T07:23:57.038Z,670.1
2022-09-15T07:24:59.527Z,669.9
2022-09-15T07:26:01.965Z,670.1
2022-09-15T07:27:04.434Z,670.4
2022-09-15T07:28:06.910Z,670.5
2022-09-15T07:29:08.838Z,670.3
2022-09-15T07:30:11.019Z,670.2
2022-09-15T07:31:13.975Z,670.4
2022-09-15T07:32:16.503Z,670.5
2022-09-15T07:33:19.013Z,670.6
2022-09-15T07:34:21.508Z,670.2
2022-09-15T07:35:23.722Z,670.3
2022-09-15T07:36:26.203Z,670.1
2022-09-15T07:37:28.725Z,670.2
2022-09-15T07:38:31.219Z,670.4
2022-09-15T07:39:33.716Z,670.2
2022-09-15T07:40:36.338Z,670.3
2022-09-15T07:41:38.600Z,669.8
2022-09-15T07:42:40.809Z,669.9
2022-09-15T07:43:42.465Z,669.8
2022-09-15T07:44:44.688Z,669.5
2022-09-15T07:45:47.564Z,670
2022-09-15T07:46:49.536Z,670
2022-09-15T07:47:51.752Z,670.7
2022-09-15T07:48:54.826Z,670.3
2022-09-15T07:49:57.046Z,670
2022-09-15T07:50:59.255Z,670.1
2022-09-15T07:52:01.433Z,669.8
2022-09-15T07:53:03.924Z,670.2
2022-09-15T07:54:06.069Z,670.3
2022-09-15T07:55:08.534Z,669.9
2022-09-15T07:56:11.038Z,670
2022-09-15T07:57:13.505Z,670.1
2022-09-15T07:58:15.991Z,670
2022-09-15T07:59:18.194Z,669.9
2022-09-15T08:00:20.671Z,670.2
2022-09-15T08:01:23.780Z,669.9
2022-09-15T08:02:26.610Z,670.1
2022-09-15T08:03:28.963Z,670.2
2022-09-15T08:04:30.913Z,670.1
2022-09-15T08:06:38.154Z,670.4
2022-09-15T08:07:40.632Z,670.1
2022-09-15T08:08:43.136Z,669.4
2022-09-15T08:09:45.609Z,670
2022-09-15T08:10:47.545Z,669.3
2022-09-15T08:11:50.064Z,669.5
2022-09-15T08:12:52.293Z,669.4
2022-09-15T08:13:54.789Z,669.4
2022-09-15T08:14:57.004Z,669.2
2022-09-15T08:15:59.193Z,669
2022-09-15T08:17:01.164Z,669
2022-09-15T08:18:03.387Z,669.2
2022-09-15T08:19:06.004Z,668.7
2022-09-15T08:20:08.549Z,669.1
2022-09-15T08:21:10.731Z,668.8
2022-09-15T08:22:12.953Z,668.9
2022-09-15T08:23:14.583Z,669
2022-09-15T08:24:17.099Z,668.8
2022-09-15T08:25:19.318Z,668.6
2022-09-15T08:26:21.533Z,668.3
2022-09-15T08:27:24.063Z,668.8
2022-09-15T08:28:26.283Z,668.8
2022-09-15T08:29:28.796Z,668.7
2022-09-15T08:30:31.011Z,668.6
2022-09-15T08:31:33.286Z,668.7
2022-09-15T08:32:35.505Z,668.9
2022-09-15T08:34:43.984Z,669.1
2022-09-15T08:35:46.183Z,669.2
2022-09-15T08:36:48.384Z,669
2022-09-15T08:37:50.872Z,669.3
2022-09-15T08:38:52.807Z,669.4
2022-09-15T08:39:55.355Z,669.2
2022-09-15T08:40:57.865Z,669.4
2022-09-15T08:42:00.356Z,668.7
2022-09-15T08:43:02.600Z,669
2022-09-15T08:44:04.803Z,669.6
2022-09-15T08:45:07.274Z,669
2022-09-15T08:46:10.126Z,670
2022-09-15T08:47:12.371Z,669.9
2022-09-15T08:48:14.301Z,669.5
2022-09-15T08:50:22.522Z,670
2022-09-15T08:51:24.230Z,669.7
2022-09-15T08:52:26.811Z,669.8
2022-09-15T08:53:29.349Z,669.6
2022-09-15T08:54:31.537Z,669.9
2022-09-15T08:55:33.753Z,669.3
2022-09-15T08:56:36.242Z,670.1
2022-09-15T08:57:38.436Z,669.7
2022-09-15T08:58:40.970Z,669.3
2022-09-15T08:59:43.456Z,669.6
2022-09-15T09:00:45.939Z,670
2022-09-15T09:01:48.509Z,669.9
2022-09-15T09:02:51.380Z,670.1
2022-09-15T09:03:53.918Z,669.9
2022-09-15T09:04:56.360Z,670.4
2022-09-15T09:05:58.964Z,670
2022-09-15T09:07:01.441Z,670.1
2022-09-15T09:08:03.917Z,670.8
2022-09-15T09:09:06.430Z,669.8
2022-09-15T09:10:08.372Z,670.3
2022-09-15T09:11:10.755Z,670.2
2022-09-15T09:12:12.972Z,670.3
2022-09-15T09:13:15.442Z,669.8
2022-09-15T09:14:17.933Z,670.3
2022-09-15T09:15:19.860Z,670.8
2022-09-15T09:16:22.776Z,670.4
2022-09-15T09:17:25.044Z,669.9
2022-09-15T09:18:27.228Z,670.1
2022-09-15T09:20:34.697Z,671
2022-09-15T09:21:36.964Z,670.8
2022-09-15T09:22:39.432Z,670.7
2022-09-15T09:23:41.735Z,671
2022-09-15T09:24:43.989Z,671
2022-09-15T09:25:45.905Z,670.8
2022-09-15T09:26:48.390Z,671
2022-09-15T09:27:50.573Z,670.3
2022-09-15T09:28:52.500Z,670.6
2022-09-15T09:29:55.053Z,671
2022-09-15T09:30:57.931Z,670.9
2022-09-15T09:32:00.449Z,670.5
2022-09-15T09:33:02.655Z,671
2022-09-15T09:34:04.880Z,670.5
2022-09-15T09:35:07.361Z,671.3
2022-09-15T09:36:09.839Z,670.7
2022-09-15T09:37:12.099Z,671.5
2022-09-15T09:38:14.336Z,671.6
2022-09-15T09:39:16.818Z,671.1
2022-09-15T09:40:19.980Z,671.7
2022-09-15T09:41:22.490Z,671.3
2022-09-15T09:42:25.330Z,671.1
2022-09-15T09:43:27.828Z,672.2
2022-09-15T09:44:30.358Z,671.1
2022-09-15T09:45:32.850Z,670.5
2022-09-15T09:46:35.526Z,671.5
2022-09-15T09:47:38.032Z,671.4
2022-09-15T09:48:39.678Z,671.6
2022-09-15T09:49:42.209Z,671.2
2022-09-15T09:50:45.018Z,671.7
2022-09-15T09:51:47.590Z,671.4
2022-09-15T09:52:50.133Z,671.3
2022-09-15T09:53:53.353Z,672.2
2022-09-15T09:54:55.821Z,671.8
2022-09-15T09:55:57.755Z,672.1
2022-09-15T09:56:59.404Z,671.9
2022-09-15T09:58:01.627Z,672.2
2022-09-15T09:59:03.550Z,672.4
2022-09-15T10:00:05.457Z,672.2
2022-09-15T10:01:08.267Z,670.8
2022-09-15T10:02:10.502Z,672.2
2022-09-15T10:03:12.730Z,671.7
2022-09-15T10:04:14.909Z,672.9
2022-09-15T10:05:17.959Z,672.8
2022-09-15T10:06:19.634Z,672.3
2022-09-15T10:07:22.134Z,672.3
2022-09-15T10:08:24.098Z,672.5
2022-09-15T10:10:32.062Z,673
2022-09-15T10:11:34.552Z,673.5
2022-09-15T10:12:36.209Z,673.6
2022-09-15T10:13:38.433Z,673.1
2022-09-15T10:14:40.645Z,672.8
2022-09-15T10:15:43.114Z,673.1
2022-09-15T10:16:45.614Z,673.7
2022-09-15T10:17:47.886Z,672.1
2022-09-15T10:19:55.087Z,673
2022-09-15T10:20:57.554Z,674.1
2022-09-15T10:21:59.491Z,673.3
2022-09-15T10:23:01.688Z,672.5
2022-09-15T10:24:04.231Z,672.3
2022-09-15T10:25:06.703Z,672.2
2022-09-15T10:26:09.179Z,672.3
2022-09-15T10:27:11.119Z,672.6
2022-09-15T10:28:13.330Z,672.8
2022-09-15T10:29:15.824Z,673.1
2022-09-15T10:30:18.319Z,672.9
2022-09-15T10:31:20.761Z,672.9
2022-09-15T10:33:27.998Z,672.7
2022-09-15T10:34:30.205Z,672.8
2022-09-15T10:35:32.429Z,672.6
2022-09-15T10:36:34.644Z,672
2022-09-15T10:37:36.850Z,671.2
2022-09-15T10:38:39.049Z,672.2
2022-09-15T10:39:41.306Z,672.5
2022-09-15T10:40:43.882Z,671.8
2022-09-15T10:41:46.104Z,672.1
2022-09-15T10:42:48.327Z,671.5
2022-09-15T10:43:50.528Z,671.9
2022-09-15T10:44:53.021Z,671.2
2022-09-15T10:45:55.935Z,671.6
2022-09-15T10:46:58.442Z,672.4
2022-09-15T10:48:00.942Z,672.1
2022-09-15T10:49:03.551Z,672.2
2022-09-15T10:50:06.041Z,671.7
2022-09-15T10:51:08.530Z,672.5
2022-09-15T10:52:10.731Z,672.1
2022-09-15T10:53:12.936Z,671.5
2022-09-15T10:54:15.406Z,672.3
2022-09-15T10:56:23.639Z,671.8
2022-09-15T10:58:29.755Z,671.9
2022-09-15T10:59:32.238Z,672
2022-09-15T11:00:34.706Z,672
2022-09-15T11:01:36.923Z,672.4
2022-09-15T11:02:39.407Z,672.1
2022-09-15T11:03:41.914Z,672.5
2022-09-15T11:04:44.412Z,672
2022-09-15T11:05:46.889Z,672.1
2022-09-15T11:06:48.548Z,672.6
2022-09-15T11:07:50.745Z,672.5
2022-09-15T11:08:53.149Z,672.8
2022-09-15T11:09:55.394Z,673
2022-09-15T11:10:57.607Z,673.4
2022-09-15T11:11:59.882Z,672.9
2022-09-15T11:13:02.351Z,672.6
2022-09-15T11:14:04.851Z,673.5
2022-09-15T11:15:07.356Z,671.9
2022-09-15T11:16:10.331Z,672.1
2022-09-15T11:17:12.863Z,673.8
2022-09-15T11:18:15.336Z,672
2022-09-15T11:19:17.545Z,672.7
2022-09-15T11:20:20.130Z,672.1
2022-09-15T11:21:22.312Z,672
2022-09-15T11:22:24.515Z,671.4
2022-09-15T11:23:26.748Z,671.5
2022-09-15T11:24:28.939Z,671.6
2022-09-15T11:25:31.407Z,672.4
2022-09-15T11:26:33.602Z,671
2022-09-15T11:27:35.838Z,672.8
2022-09-15T11:28:38.054Z,672.5
2022-09-15T11:29:40.614Z,671.7
2022-09-15T11:31:48.609Z,672.5
2022-09-15T11:33:56.125Z,671.7
2022-09-15T11:34:58.320Z,673.2
2022-09-15T11:36:00.846Z,672.6
2022-09-15T11:37:03.316Z,673.1
2022-09-15T11:38:07.258Z,673.2
2022-09-15T11:39:12.468Z,672.8
2022-09-15T11:40:15.244Z,673.1
2022-09-15T11:41:17.491Z,672.2
2022-09-15T11:42:20.232Z,673.5
2022-09-15T11:43:22.488Z,673.4
2022-09-15T11:44:24.679Z,674.1
2022-09-15T11:45:27.181Z,673
2022-09-15T11:46:29.985Z,673.4
2022-09-15T11:47:32.576Z,673.2
2022-09-15T11:48:34.764Z,673.5
2022-09-15T11:49:37.247Z,673.2
2022-09-15T11:50:39.730Z,674
2022-09-15T11:51:41.651Z,673.8
2022-09-15T11:52:44.120Z,673.1
2022-09-15T11:53:46.341Z,672.5
2022-09-15T11:54:48.535Z,673.5
2022-09-15T11:55:51.039Z,673.4
2022-09-15T11:56:53.256Z,673.4
2022-09-15T11:57:55.743Z,674.1
2022-09-15T11:58:57.728Z,673.3
2022-09-15T11:59:59.940Z,672.7
2022-09-15T12:01:02.450Z,672.1
2022-09-15T12:02:04.845Z,673
2022-09-15T12:03:07.652Z,673.4
2022-09-15T12:04:09.889Z,673.4
2022-09-15T12:05:13.073Z,673.3
2022-09-15T12:06:15.551Z,672.6
2022-09-15T12:07:18.052Z,672.9
2022-09-15T12:08:19.982Z,673.9
2022-09-15T12:09:22.469Z,674
2022-09-15T12:10:24.812Z,673.6
2022-09-15T12:11:27.068Z,674
2022-09-15T12:13:34.314Z,673.3
2022-09-15T12:14:36.831Z,672.4
2022-09-15T12:15:39.568Z,673.2
2022-09-15T12:16:41.784Z,673.7
2022-09-15T12:17:44.317Z,673.6
2022-09-15T12:18:48.821Z,672.9
2022-09-15T12:19:51.049Z,672.7
2022-09-15T12:20:53.237Z,672.7
2022-09-15T12:21:55.438Z,671.5
2022-09-15T12:22:57.924Z,671.1
2022-09-15T12:24:00.126Z,671.2
2022-09-15T12:25:03.158Z,670.7
2022-09-15T12:26:05.641Z,671.3
2022-09-15T12:27:08.140Z,670.7
2022-09-15T12:28:10.664Z,670.9
2022-09-15T12:29:13.163Z,671.3
2022-09-15T12:30:15.122Z,671.5
2022-09-15T12:31:17.911Z,671.8
2022-09-15T12:32:20.431Z,672.8
2022-09-15T12:33:22.910Z,672.6
2022-09-15T12:34:25.428Z,672.9
2022-09-15T12:35:27.633Z,672.9
2022-09-15T12:36:30.119Z,673.2
2022-09-15T12:37:32.038Z,673.4
2022-09-15T12:38:34.529Z,673.2
2022-09-15T12:39:36.439Z,672.6
2022-09-15T12:40:39.570Z,672.8
2022-09-15T12:41:42.090Z,673.1
2022-09-15T12:42:43.996Z,673.2
2022-09-15T12:43:46.229Z,673.1
2022-09-15T12:44:48.726Z,673.2
2022-09-15T12:45:51.074Z,673.3
2022-09-15T12:46:54.098Z,673.8
2022-09-15T12:47:56.645Z,673.5
2022-09-15T12:48:59.135Z,673.3
2022-09-15T12:50:01.347Z,674
2022-09-15T12:51:03.951Z,674.3
2022-09-15T12:52:05.885Z,674.1
2022-09-15T12:53:08.095Z,673.7
2022-09-15T12:54:10.592Z,674.6
2022-09-15T12:55:12.798Z,674
2022-09-15T12:56:15.006Z,674.4
2022-09-15T12:57:16.927Z,674.9
2022-09-15T12:58:19.408Z,674.3
2022-09-15T12:59:21.884Z,674.2
2022-09-15T13:00:23.922Z,674.4
2022-09-15T13:01:26.809Z,674.5
2022-09-15T13:02:30.010Z,674.4
2022-09-15T13:03:32.892Z,674.3
2022-09-15T13:04:35.118Z,673.6
2022-09-15T13:05:38.996Z,674.6
2022-09-15T13:06:41.552Z,673.7
2022-09-15T13:07:44.020Z,674.5
2022-09-15T13:08:46.509Z,674.9
2022-09-15T13:09:48.704Z,673.8
2022-09-15T13:10:51.204Z,674.5
2022-09-15T13:11:53.676Z,673.7
2022-09-15T13:12:56.161Z,672.8
2022-09-15T13:13:58.094Z,673.8
2022-09-15T13:15:00.310Z,674.9
2022-09-15T13:16:03.203Z,674.5
2022-09-15T13:17:05.744Z,675
2022-09-15T13:18:07.949Z,675.1
2022-09-15T13:19:10.200Z,674.7
2022-09-15T13:20:12.152Z,675.1
2022-09-15T13:21:14.380Z,674.6
2022-09-15T13:22:16.960Z,674.7
2022-09-15T13:23:19.455Z,675
2022-09-15T13:24:21.656Z,676.1
2022-09-15T13:25:24.142Z,674.3
2022-09-15T13:26:26.338Z,675
2022-09-15T13:27:28.832Z,675.4
2022-09-15T13:28:31.321Z,675.1
2022-09-15T13:29:33.812Z,674.3
2022-09-15T13:30:36.021Z,674.4
2022-09-15T13:31:37.702Z,673.8
2022-09-15T13:32:39.982Z,674.9
2022-09-15T13:35:52.502Z,675.1
2022-09-15T13:39:04.696Z,674.9
2022-09-15T13:40:07.495Z,675.2
2022-09-15T13:41:10.009Z,675.6
2022-09-15T13:42:12.493Z,675.7
2022-09-15T13:43:14.691Z,675.7
2022-09-15T13:44:16.897Z,674.3
2022-09-15T13:45:19.380Z,674.6
2022-09-15T13:46:21.932Z,675.2
2022-09-15T13:47:24.471Z,675.7
2022-09-15T13:48:27.005Z,675.2
2022-09-15T13:49:29.493Z,674.8
2022-09-15T13:50:31.960Z,674.4
2022-09-15T13:51:34.197Z,674.9
2022-09-15T13:52:36.427Z,675.3
2022-09-15T13:53:38.948Z,675.4